createdAt,value
2016-07-21T00:00:14.612Z,1011.25
2016-07-21T00:01:14.641Z,1011.27
2016-07-21T00:02:14.667Z,1011.27
2016-07-21T00:03:14.710Z,1011.25
2016-07-21T00:04:14.721Z,1011.24
2016-07-21T00:05:14.748Z,1011.28
2016-07-21T00:06:14.774Z,1011.26
2016-07-21T00:07:14.803Z,1011.25
2016-07-21T00:08:14.830Z,1011.27
2016-07-21T00:09:14.857Z,1011.24
2016-07-21T00:11:14.909Z,1011.19
2016-07-21T00:12:14.936Z,1011.18
2016-07-21T00:13:14.963Z,1011.18
2016-07-21T00:14:14.991Z,1011.14
2016-07-21T00:15:15.017Z,1011.15
2016-07-21T00:16:15.045Z,1011.15
2016-07-21T00:17:15.073Z,1011.12
2016-07-21T00:18:15.097Z,1011.16
2016-07-21T00:19:15.127Z,1011.11
2016-07-21T00:20:15.154Z,1011.09
2016-07-21T00:21:15.177Z,1011.1
2016-07-21T00:22:15.208Z,1011.12
2016-07-21T00:23:15.231Z,1011.1
2016-07-21T00:24:15.261Z,1011.06
2016-07-21T00:25:15.287Z,1011.09
2016-07-21T00:27:15.342Z,1011.07
2016-07-21T00:28:15.367Z,1011.02
2016-07-21T00:29:15.393Z,1011.02
2016-07-21T00:30:15.419Z,1011.02
2016-07-21T00:31:15.448Z,1011
2016-07-21T00:32:15.475Z,1010.96
2016-07-21T00:33:15.499Z,1010.93
2016-07-21T00:34:15.527Z,1010.96
2016-07-21T00:35:15.555Z,1010.97
2016-07-21T00:36:15.582Z,1010.97
2016-07-21T00:37:15.607Z,1010.94
2016-07-21T00:38:15.634Z,1010.96
2016-07-21T00:39:15.661Z,1010.97
2016-07-21T00:40:15.689Z,1010.93
2016-07-21T00:42:15.746Z,1010.88
2016-07-21T00:43:15.768Z,1010.84
2016-07-21T00:44:15.797Z,1010.8
2016-07-21T00:45:15.825Z,1010.84
2016-07-21T00:46:15.852Z,1010.8
2016-07-21T00:47:15.875Z,1010.82
2016-07-21T00:48:15.902Z,1010.84
2016-07-21T00:49:15.930Z,1010.83
2016-07-21T00:50:15.955Z,1010.82
2016-07-21T00:51:15.982Z,1010.79
2016-07-21T00:52:16.010Z,1010.8
2016-07-21T00:53:16.039Z,1010.76
2016-07-21T00:54:16.063Z,1010.75
2016-07-21T00:55:16.090Z,1010.73
2016-07-21T00:56:16.120Z,1010.74
2016-07-21T00:57:16.146Z,1010.7
2016-07-21T00:58:16.169Z,1010.68
2016-07-21T00:59:16.197Z,1010.67
2016-07-21T01:00:16.229Z,1010.65
2016-07-21T01:01:16.250Z,1010.65
2016-07-21T01:02:16.278Z,1010.62
2016-07-21T01:03:16.306Z,1010.6
2016-07-21T01:04:16.333Z,1010.57
2016-07-21T01:05:16.359Z,1010.56
2016-07-21T01:06:16.384Z,1010.52
2016-07-21T01:07:16.411Z,1010.47
2016-07-21T01:08:16.444Z,1010.46
2016-07-21T01:09:16.464Z,1010.46
2016-07-21T01:10:16.493Z,1010.47
2016-07-21T01:11:16.520Z,1010.49
2016-07-21T01:12:16.595Z,1010.47
2016-07-21T01:14:16.598Z,1010.49
2016-07-21T01:15:16.628Z,1010.5
2016-07-21T01:16:16.651Z,1010.49
2016-07-21T01:17:16.680Z,1010.48
2016-07-21T01:18:16.707Z,1010.42
2016-07-21T01:19:16.731Z,1010.44
2016-07-21T01:20:16.757Z,1010.42
2016-07-21T01:21:16.787Z,1010.44
2016-07-21T01:22:16.812Z,1010.39
2016-07-21T01:23:16.839Z,1010.42
2016-07-21T01:24:16.864Z,1010.42
2016-07-21T01:25:16.892Z,1010.44
2016-07-21T01:26:16.921Z,1010.43
2016-07-21T01:27:16.944Z,1010.37
2016-07-21T01:28:16.973Z,1010.39
2016-07-21T01:30:17.026Z,1010.39
2016-07-21T01:31:17.052Z,1010.46
2016-07-21T01:32:17.079Z,1010.4
2016-07-21T01:33:17.104Z,1010.41
2016-07-21T01:34:17.132Z,1010.4
2016-07-21T01:35:17.157Z,1010.42
2016-07-21T01:36:17.187Z,1010.43
2016-07-21T01:37:17.213Z,1010.44
2016-07-21T01:38:17.236Z,1010.44
2016-07-21T01:39:17.264Z,1010.5
2016-07-21T01:40:17.294Z,1010.48
2016-07-21T01:41:17.318Z,1010.49
2016-07-21T01:42:17.345Z,1010.48
2016-07-21T01:43:17.373Z,1010.49
2016-07-21T01:44:17.397Z,1010.46
2016-07-21T01:46:17.452Z,1010.4
2016-07-21T01:47:17.479Z,1010.39
2016-07-21T01:48:17.505Z,1010.4
2016-07-21T01:49:17.530Z,1010.39
2016-07-21T01:50:17.559Z,1010.37
2016-07-21T01:51:17.584Z,1010.33
2016-07-21T01:52:17.611Z,1010.31
2016-07-21T01:53:17.635Z,1010.32
2016-07-21T01:54:17.661Z,1010.3
2016-07-21T01:55:17.689Z,1010.26
2016-07-21T01:56:17.715Z,1010.25
2016-07-21T01:57:17.741Z,1010.27
2016-07-21T01:58:17.769Z,1010.22
2016-07-21T01:59:17.795Z,1010.23
2016-07-21T02:00:17.821Z,1010.23
2016-07-21T02:02:17.876Z,1010.22
2016-07-21T02:03:17.901Z,1010.24
2016-07-21T02:04:17.929Z,1010.23
2016-07-21T02:05:17.953Z,1010.21
2016-07-21T02:06:17.980Z,1010.2
2016-07-21T02:07:18.007Z,1010.2
2016-07-21T02:08:18.034Z,1010.11
2016-07-21T02:09:18.062Z,1010.14
2016-07-21T02:10:18.087Z,1010.13
2016-07-21T02:11:18.114Z,1010.1
2016-07-21T02:12:18.139Z,1010.05
2016-07-21T02:13:18.165Z,1010.07
2016-07-21T02:14:18.195Z,1010.04
2016-07-21T02:15:18.222Z,1010.08
2016-07-21T02:17:18.274Z,1010.05
2016-07-21T02:18:18.299Z,1010.06
2016-07-21T02:19:18.329Z,1010.06
2016-07-21T02:20:18.350Z,1010.09
2016-07-21T02:21:18.378Z,1010.05
2016-07-21T02:22:18.403Z,1010.11
2016-07-21T02:23:18.432Z,1010.1
2016-07-21T02:24:18.458Z,1010.11
2016-07-21T02:25:18.484Z,1010.1
2016-07-21T02:26:18.512Z,1010.1
2016-07-21T02:27:18.538Z,1010.12
2016-07-21T02:28:18.584Z,1010.09
2016-07-21T02:29:18.590Z,1010.11
2016-07-21T02:30:18.615Z,1010.13
2016-07-21T02:31:18.642Z,1010.14
2016-07-21T02:32:18.668Z,1010.19
2016-07-21T02:33:18.694Z,1010.22
2016-07-21T02:34:18.719Z,1010.24
2016-07-21T02:35:18.746Z,1010.26
2016-07-21T02:36:18.775Z,1010.25
2016-07-21T02:37:18.801Z,1010.28
2016-07-21T02:38:18.828Z,1010.29
2016-07-21T02:39:18.853Z,1010.29
2016-07-21T02:40:18.880Z,1010.32
2016-07-21T02:41:18.906Z,1010.3
2016-07-21T02:42:18.934Z,1010.28
2016-07-21T02:43:18.961Z,1010.29
2016-07-21T02:44:18.994Z,1010.26
2016-07-21T02:45:19.597Z,1010.27
2016-07-21T02:46:19.037Z,1010.22
2016-07-21T02:47:19.064Z,1010.2
2016-07-21T02:49:19.118Z,1010.2
2016-07-21T02:50:19.142Z,1010.19
2016-07-21T02:51:19.169Z,1010.15
2016-07-21T02:52:19.194Z,1010.14
2016-07-21T02:53:19.223Z,1010.12
2016-07-21T02:54:19.249Z,1010.17
2016-07-21T02:55:19.276Z,1010.17
2016-07-21T02:56:19.300Z,1010.18
2016-07-21T02:57:19.327Z,1010.21
2016-07-21T02:58:19.352Z,1010.24
2016-07-21T02:59:19.381Z,1010.21
2016-07-21T03:00:19.407Z,1010.24
2016-07-21T03:01:19.433Z,1010.24
2016-07-21T03:02:19.458Z,1010.21
2016-07-21T03:03:19.486Z,1010.26
2016-07-21T03:05:19.537Z,1010.22
2016-07-21T03:06:19.565Z,1010.24
2016-07-21T03:07:19.590Z,1010.24
2016-07-21T03:08:19.617Z,1010.24
2016-07-21T03:09:19.644Z,1010.2
2016-07-21T03:10:19.670Z,1010.16
2016-07-21T03:11:19.695Z,1010.16
2016-07-21T03:12:19.721Z,1010.13
2016-07-21T03:13:19.749Z,1010.13
2016-07-21T03:14:19.775Z,1010.09
2016-07-21T03:15:19.802Z,1010.07
2016-07-21T03:16:19.828Z,1010.1
2016-07-21T03:17:19.854Z,1010.12
2016-07-21T03:18:19.878Z,1010.12
2016-07-21T03:19:19.905Z,1010.16
2016-07-21T03:21:19.957Z,1010.16
2016-07-21T03:22:19.984Z,1010.15
2016-07-21T03:23:20.013Z,1010.17
2016-07-21T03:24:20.036Z,1010.12
2016-07-21T03:25:20.092Z,1010.14
2016-07-21T03:26:20.108Z,1010.05
2016-07-21T03:27:20.115Z,1010.03
2016-07-21T03:28:20.141Z,1009.98
2016-07-21T03:29:20.169Z,1009.91
2016-07-21T03:30:20.207Z,1009.91
2016-07-21T03:31:20.220Z,1009.9
2016-07-21T03:32:20.246Z,1009.88
2016-07-21T03:33:20.273Z,1009.86
2016-07-21T03:34:20.300Z,1009.85
2016-07-21T03:35:20.328Z,1009.8
2016-07-21T03:37:20.378Z,1009.75
2016-07-21T03:38:20.407Z,1009.74
2016-07-21T03:39:20.432Z,1009.7
2016-07-21T03:40:20.459Z,1009.69
2016-07-21T03:41:20.485Z,1009.65
2016-07-21T03:42:20.508Z,1009.66
2016-07-21T03:43:20.537Z,1009.69
2016-07-21T03:44:20.564Z,1009.65
2016-07-21T03:45:20.589Z,1009.69
2016-07-21T03:46:20.618Z,1009.64
2016-07-21T03:47:20.642Z,1009.7
2016-07-21T03:48:20.670Z,1009.7
2016-07-21T03:49:20.698Z,1009.72
2016-07-21T03:50:20.722Z,1009.72
2016-07-21T03:52:20.773Z,1009.76
2016-07-21T03:53:20.802Z,1009.8
2016-07-21T03:54:20.825Z,1009.84
2016-07-21T03:55:20.854Z,1009.85
2016-07-21T03:56:20.878Z,1009.88
2016-07-21T03:57:20.906Z,1009.85
2016-07-21T03:58:20.933Z,1009.87
2016-07-21T03:59:20.958Z,1009.81
2016-07-21T04:00:20.985Z,1009.86
2016-07-21T04:01:21.010Z,1009.83
2016-07-21T04:02:21.036Z,1009.83
2016-07-21T04:03:21.063Z,1009.82
2016-07-21T04:04:21.090Z,1009.83
2016-07-21T04:05:21.117Z,1009.81
2016-07-21T04:06:21.142Z,1009.79
2016-07-21T04:07:21.170Z,1009.75
2016-07-21T04:08:21.194Z,1009.75
2016-07-21T04:09:21.220Z,1009.73
2016-07-21T04:10:21.247Z,1009.67
2016-07-21T04:11:21.275Z,1009.67
2016-07-21T04:12:21.300Z,1009.63
2016-07-21T04:13:21.328Z,1009.61
2016-07-21T04:14:21.352Z,1009.66
2016-07-21T04:15:21.378Z,1009.65
2016-07-21T04:16:21.406Z,1009.65
2016-07-21T04:17:21.433Z,1009.66
2016-07-21T04:18:21.465Z,1009.65
2016-07-21T04:19:21.486Z,1009.65
2016-07-21T04:20:21.510Z,1009.64
2016-07-21T04:21:21.537Z,1009.64
2016-07-21T04:22:21.562Z,1009.64
2016-07-21T04:24:21.616Z,1009.7
2016-07-21T04:25:21.644Z,1009.72
2016-07-21T04:26:21.669Z,1009.74
2016-07-21T04:27:21.697Z,1009.72
2016-07-21T04:28:21.723Z,1009.71
2016-07-21T04:29:21.749Z,1009.73
2016-07-21T04:30:21.774Z,1009.68
2016-07-21T04:31:21.806Z,1009.69
2016-07-21T04:32:21.829Z,1009.71
2016-07-21T04:33:21.852Z,1009.66
2016-07-21T04:34:21.882Z,1009.7
2016-07-21T04:35:21.908Z,1009.69
2016-07-21T04:36:21.933Z,1009.71
2016-07-21T04:37:21.958Z,1009.74
2016-07-21T04:38:21.988Z,1009.73
2016-07-21T04:40:22.041Z,1009.76
2016-07-21T04:41:22.067Z,1009.8
2016-07-21T04:42:22.092Z,1009.82
2016-07-21T04:43:22.121Z,1009.84
2016-07-21T04:44:22.145Z,1009.77
2016-07-21T04:45:22.170Z,1009.81
2016-07-21T04:46:22.200Z,1009.83
2016-07-21T04:47:22.225Z,1009.83
2016-07-21T04:48:22.251Z,1009.9
2016-07-21T04:49:22.278Z,1010.18
2016-07-21T04:50:22.307Z,1010.36
2016-07-21T04:51:22.331Z,1010.34
2016-07-21T04:52:22.361Z,1010.36
2016-07-21T04:53:22.386Z,1010.43
2016-07-21T04:54:22.416Z,1010.44
2016-07-21T04:56:22.471Z,1010.42
2016-07-21T04:57:22.502Z,1010.47
2016-07-21T04:58:22.528Z,1010.5
2016-07-21T04:59:22.557Z,1010.54
2016-07-21T05:00:22.590Z,1010.51
2016-07-21T05:01:22.619Z,1010.5
2016-07-21T05:02:22.657Z,1010.48
2016-07-21T05:03:22.681Z,1010.48
2016-07-21T05:04:22.712Z,1010.47
2016-07-21T05:05:22.744Z,1010.5
2016-07-21T05:06:22.773Z,1010.45
2016-07-21T05:07:22.806Z,1010.49
2016-07-21T05:08:22.836Z,1010.44
2016-07-21T05:09:22.869Z,1010.47
2016-07-21T05:10:22.903Z,1010.45
2016-07-21T05:12:22.968Z,1010.41
2016-07-21T05:13:23.006Z,1010.38
2016-07-21T05:14:23.032Z,1010.42
2016-07-21T05:15:23.065Z,1010.38
2016-07-21T05:16:23.099Z,1010.38
2016-07-21T05:17:23.132Z,1010.36
2016-07-21T05:18:23.164Z,1010.36
2016-07-21T05:19:23.199Z,1010.33
2016-07-21T05:20:23.231Z,1010.32
2016-07-21T05:21:23.261Z,1010.29
2016-07-21T05:22:23.298Z,1010.24
2016-07-21T05:23:23.329Z,1010.27
2016-07-21T05:24:23.363Z,1010.26
2016-07-21T05:25:23.397Z,1010.29
2016-07-21T05:27:23.465Z,1010.24
2016-07-21T05:28:23.497Z,1010.29
2016-07-21T05:29:23.540Z,1010.33
2016-07-21T05:30:23.568Z,1010.36
2016-07-21T05:31:23.599Z,1010.45
2016-07-21T05:32:23.635Z,1010.5
2016-07-21T05:33:23.669Z,1010.5
2016-07-21T05:34:23.701Z,1010.52
2016-07-21T05:35:23.734Z,1010.46
2016-07-21T05:36:23.771Z,1010.55
2016-07-21T05:37:23.804Z,1010.56
2016-07-21T05:38:23.838Z,1010.6
2016-07-21T05:39:23.874Z,1010.67
2016-07-21T05:40:23.906Z,1010.66
2016-07-21T05:41:23.943Z,1010.7
2016-07-21T05:42:23.975Z,1010.8
2016-07-21T05:43:24.011Z,1010.85
2016-07-21T05:44:24.052Z,1010.86
2016-07-21T05:45:24.080Z,1010.87
2016-07-21T05:46:24.112Z,1010.85
2016-07-21T05:47:24.148Z,1010.81
2016-07-21T05:48:24.184Z,1010.79
2016-07-21T05:49:24.218Z,1010.74
2016-07-21T05:50:24.253Z,1010.76
2016-07-21T05:51:24.290Z,1010.72
2016-07-21T05:52:24.325Z,1010.73
2016-07-21T05:53:24.358Z,1010.77
2016-07-21T05:54:24.394Z,1010.76
2016-07-21T05:55:24.429Z,1010.73
2016-07-21T05:56:24.463Z,1010.77
2016-07-21T05:57:24.498Z,1010.8
2016-07-21T05:59:24.572Z,1010.86
2016-07-21T06:00:24.605Z,1010.8
2016-07-21T06:01:24.641Z,1010.79
2016-07-21T06:02:24.678Z,1010.82
2016-07-21T06:03:24.712Z,1010.81
2016-07-21T06:04:24.748Z,1010.8
2016-07-21T06:05:24.783Z,1010.79
2016-07-21T06:06:24.819Z,1010.75
2016-07-21T06:07:24.856Z,1010.74
2016-07-21T06:08:24.891Z,1010.72
2016-07-21T06:09:24.930Z,1010.75
2016-07-21T06:10:24.964Z,1010.77
2016-07-21T06:11:25.007Z,1010.78
2016-07-21T06:12:25.043Z,1010.8
2016-07-21T06:13:25.074Z,1010.84
2016-07-21T06:15:25.147Z,1010.82
2016-07-21T06:16:25.184Z,1010.82
2016-07-21T06:17:25.222Z,1010.84
2016-07-21T06:18:25.258Z,1010.85
2016-07-21T06:19:25.292Z,1010.84
2016-07-21T06:20:25.332Z,1010.87
2016-07-21T06:21:25.370Z,1010.94
2016-07-21T06:22:25.404Z,1010.87
2016-07-21T06:23:25.443Z,1010.78
2016-07-21T06:24:25.480Z,1010.79
2016-07-21T06:25:25.522Z,1010.79
2016-07-21T06:26:25.553Z,1010.78
2016-07-21T06:27:25.591Z,1010.68
2016-07-21T06:28:25.629Z,1010.38
2016-07-21T06:29:25.875Z,1010.55
2016-07-21T06:31:25.738Z,1010.62
2016-07-21T06:32:25.776Z,1010.82
2016-07-21T06:33:25.814Z,1011.02
2016-07-21T06:34:25.847Z,1010.99
2016-07-21T06:35:25.886Z,1010.95
2016-07-21T06:36:25.922Z,1010.82
2016-07-21T06:37:25.957Z,1010.91
2016-07-21T06:38:25.995Z,1010.99
2016-07-21T06:39:26.029Z,1010.84
2016-07-21T06:40:26.068Z,1011.04
2016-07-21T06:41:26.103Z,1011.06
2016-07-21T06:42:26.140Z,1011.1
2016-07-21T06:43:26.177Z,1011.14
2016-07-21T06:44:26.211Z,1011.02
2016-07-21T06:45:26.249Z,1011.08
2016-07-21T06:47:26.320Z,1010.58
2016-07-21T06:48:26.358Z,1010.84
2016-07-21T06:49:26.394Z,1010.94
2016-07-21T06:50:26.434Z,1010.98
2016-07-21T06:51:26.469Z,1011.12
2016-07-21T06:52:26.504Z,1011.14
2016-07-21T06:53:26.543Z,1011.14
2016-07-21T06:54:26.580Z,1011.22
2016-07-21T06:55:26.615Z,1011.24
2016-07-21T06:56:26.653Z,1011.24
2016-07-21T06:57:26.690Z,1011.28
2016-07-21T06:58:26.726Z,1011.36
2016-07-21T06:59:26.763Z,1011.42
2016-07-21T07:00:26.800Z,1011.45
2016-07-21T07:02:26.875Z,1011.56
2016-07-21T07:03:26.911Z,1011.56
2016-07-21T07:04:26.948Z,1011.67
2016-07-21T07:05:26.987Z,1011.73
2016-07-21T07:06:27.025Z,1011.77
2016-07-21T07:07:27.061Z,1011.78
2016-07-21T07:08:27.098Z,1011.29
2016-07-21T07:09:27.136Z,1010.96
2016-07-21T07:10:27.173Z,1011.35
2016-07-21T07:11:27.208Z,1011.87
2016-07-21T07:12:27.248Z,1012.02
2016-07-21T07:13:27.287Z,1012.04
2016-07-21T07:14:27.320Z,1011.93
2016-07-21T07:15:27.360Z,1011.74
2016-07-21T07:16:27.398Z,1012.19
2016-07-21T07:17:27.432Z,1012.17
2016-07-21T07:18:27.471Z,1012.16
2016-07-21T07:19:27.505Z,1012.2
2016-07-21T07:20:27.545Z,1012.26
2016-07-21T07:21:27.580Z,1012.33
2016-07-21T07:22:27.615Z,1012.31
2016-07-21T07:23:27.653Z,1012.3
2016-07-21T07:24:27.693Z,1012.19
2016-07-21T07:25:27.728Z,1012.22
2016-07-21T07:26:27.765Z,1012.1
2016-07-21T07:27:27.803Z,1012.14
2016-07-21T07:28:27.841Z,1012.05
2016-07-21T07:29:27.878Z,1012
2016-07-21T07:30:27.918Z,1011.97
2016-07-21T07:31:27.954Z,1011.91
2016-07-21T07:32:27.989Z,1011.92
2016-07-21T07:34:28.068Z,1011.71
2016-07-21T07:35:28.103Z,1011.67
2016-07-21T07:36:28.139Z,1011.6
2016-07-21T07:37:28.178Z,1011.52
2016-07-21T07:38:28.215Z,1011.52
2016-07-21T07:39:28.254Z,1011.49
2016-07-21T07:40:28.289Z,1011.43
2016-07-21T07:41:28.329Z,1011.37
2016-07-21T07:42:28.365Z,1011.32
2016-07-21T07:43:28.403Z,1011.35
2016-07-21T07:44:28.441Z,1011.24
2016-07-21T07:45:28.477Z,1011.16
2016-07-21T07:46:28.517Z,1011.13
2016-07-21T07:47:28.552Z,1011.08
2016-07-21T07:48:28.590Z,1011.04
2016-07-21T07:50:28.663Z,1010.99
2016-07-21T07:51:28.703Z,1010.95
2016-07-21T07:52:28.738Z,1010.91
2016-07-21T07:53:28.778Z,1010.94
2016-07-21T07:54:28.813Z,1010.91
2016-07-21T07:55:28.852Z,1010.91
2016-07-21T07:56:28.890Z,1010.9
2016-07-21T07:57:28.926Z,1010.9
2016-07-21T07:58:28.962Z,1010.84
2016-07-21T07:59:29.000Z,1010.81
2016-07-21T08:00:29.036Z,1010.84
2016-07-21T08:01:29.076Z,1010.79
2016-07-21T08:02:29.111Z,1010.68
2016-07-21T08:03:29.151Z,1010.59
2016-07-21T08:04:29.188Z,1010.49
2016-07-21T08:06:29.260Z,1010.51
2016-07-21T08:07:29.298Z,1010.48
2016-07-21T08:08:29.336Z,1010.5
2016-07-21T08:09:29.376Z,1010.46
2016-07-21T08:10:29.411Z,1010.43
2016-07-21T08:11:29.449Z,1010.47
2016-07-21T08:12:29.486Z,1010.47
2016-07-21T08:13:29.520Z,1010.42
2016-07-21T08:14:29.559Z,1010.45
2016-07-21T08:15:29.598Z,1010.42
2016-07-21T08:16:29.634Z,1010.39
2016-07-21T08:17:29.669Z,1010.43
2016-07-21T08:18:29.709Z,1010.4
2016-07-21T08:19:29.746Z,1010.43
2016-07-21T08:20:29.783Z,1010.4
2016-07-21T08:22:29.855Z,1010.44
2016-07-21T08:23:29.893Z,1010.43
2016-07-21T08:24:29.930Z,1010.45
2016-07-21T08:25:29.968Z,1010.45
2016-07-21T08:26:30.008Z,1010.49
2016-07-21T08:27:30.042Z,1010.53
2016-07-21T08:28:30.079Z,1010.32
2016-07-21T08:29:30.115Z,1010.36
2016-07-21T08:30:30.153Z,1010.5
2016-07-21T08:31:30.187Z,1010.59
2016-07-21T08:32:30.230Z,1010.72
2016-07-21T08:33:30.261Z,1010.85
2016-07-21T08:34:30.300Z,1010.85
2016-07-21T08:35:30.335Z,1010.83
2016-07-21T08:37:30.409Z,1010.85
2016-07-21T08:38:30.445Z,1010.72
2016-07-21T08:39:30.484Z,1010.65
2016-07-21T08:40:30.519Z,1010.49
2016-07-21T08:41:30.557Z,1010.53
2016-07-21T08:42:30.593Z,1010.72
2016-07-21T08:43:30.629Z,1010.72
2016-07-21T08:44:30.666Z,1010.68
2016-07-21T08:45:30.701Z,1010.49
2016-07-21T08:46:30.739Z,1010.53
2016-07-21T08:47:30.776Z,1010.37
2016-07-21T08:48:30.814Z,1010.47
2016-07-21T08:49:30.847Z,1010.61
2016-07-21T08:50:30.887Z,1010.61
2016-07-21T08:51:30.923Z,1010.6
2016-07-21T08:52:30.957Z,1010.62
2016-07-21T08:53:30.994Z,1010.59
2016-07-21T08:54:31.031Z,1010.59
2016-07-21T08:55:31.066Z,1010.58
2016-07-21T08:56:31.103Z,1010.49
2016-07-21T08:57:31.141Z,1010.4
2016-07-21T08:58:31.178Z,1010.3
2016-07-21T08:59:31.216Z,1010.3
2016-07-21T09:00:31.246Z,1010.35
2016-07-21T09:01:31.285Z,1010.32
2016-07-21T09:02:31.323Z,1010.41
2016-07-21T09:03:31.357Z,1010.33
2016-07-21T09:04:31.390Z,1010.4
2016-07-21T09:05:31.428Z,1010.44
2016-07-21T09:06:31.464Z,1010.46
2016-07-21T09:07:31.497Z,1010.48
2016-07-21T09:09:31.569Z,1010.42
2016-07-21T09:10:31.607Z,1010.41
2016-07-21T09:11:31.641Z,1010.38
2016-07-21T09:12:31.678Z,1010.38
2016-07-21T09:13:31.712Z,1010.31
2016-07-21T09:14:31.750Z,1010.32
2016-07-21T09:15:31.783Z,1010.33
2016-07-21T09:16:31.819Z,1010.33
2016-07-21T09:17:31.856Z,1010.32
2016-07-21T09:18:31.890Z,1010.39
2016-07-21T09:19:31.937Z,1010.4
2016-07-21T09:20:31.962Z,1010.41
2016-07-21T09:21:32.000Z,1010.44
2016-07-21T09:22:32.033Z,1010.48
2016-07-21T09:23:32.069Z,1010.45
2016-07-21T09:25:32.144Z,1010.5
2016-07-21T09:26:32.179Z,1010.5
2016-07-21T09:27:32.214Z,1010.49
2016-07-21T09:28:32.248Z,1010.46
2016-07-21T09:29:32.285Z,1010.47
2016-07-21T09:30:32.319Z,1010.52
2016-07-21T09:31:32.354Z,1010.51
2016-07-21T09:32:32.392Z,1010.55
2016-07-21T09:33:32.425Z,1010.51
2016-07-21T09:34:32.460Z,1010.56
2016-07-21T09:35:32.499Z,1010.49
2016-07-21T09:36:32.532Z,1010.54
2016-07-21T09:37:32.577Z,1010.52
2016-07-21T09:38:32.604Z,1010.51
2016-07-21T09:39:32.641Z,1010.56
2016-07-21T09:41:32.709Z,1010.6
2016-07-21T09:42:32.746Z,1010.58
2016-07-21T09:43:32.782Z,1010.58
2016-07-21T09:44:32.814Z,1010.64
2016-07-21T09:45:32.852Z,1010.56
2016-07-21T09:46:32.885Z,1010.56
2016-07-21T09:47:32.922Z,1010.56
2016-07-21T09:48:32.958Z,1010.57
2016-07-21T09:49:32.992Z,1010.59
2016-07-21T09:50:33.029Z,1010.62
2016-07-21T09:51:33.069Z,1010.57
2016-07-21T09:52:33.094Z,1010.58
2016-07-21T09:53:33.129Z,1010.57
2016-07-21T09:54:33.164Z,1010.53
2016-07-21T09:55:33.200Z,1010.49
2016-07-21T09:57:33.270Z,1010.53
2016-07-21T09:58:33.304Z,1010.44
2016-07-21T09:59:33.338Z,1010.43
2016-07-21T10:00:33.373Z,1010.44
2016-07-21T10:01:33.407Z,1010.42
2016-07-21T10:02:33.438Z,1010.38
2016-07-21T10:03:33.476Z,1010.38
2016-07-21T10:04:33.507Z,1010.37
2016-07-21T10:05:33.543Z,1010.33
2016-07-21T10:06:33.577Z,1010.36
2016-07-21T10:07:33.609Z,1010.32
2016-07-21T10:08:33.648Z,1010.34
2016-07-21T10:09:33.680Z,1010.34
2016-07-21T10:10:33.715Z,1010.37
2016-07-21T10:12:33.782Z,1010.35
2016-07-21T10:13:33.816Z,1010.34
2016-07-21T10:14:33.852Z,1010.36
2016-07-21T10:15:33.887Z,1010.41
2016-07-21T10:16:33.920Z,1010.38
2016-07-21T10:17:33.952Z,1010.39
2016-07-21T10:18:33.986Z,1010.46
2016-07-21T10:19:34.023Z,1010.43
2016-07-21T10:20:34.053Z,1010.45
2016-07-21T10:21:34.089Z,1010.44
2016-07-21T10:22:34.125Z,1010.46
2016-07-21T10:23:34.160Z,1010.43
2016-07-21T10:24:34.191Z,1010.45
2016-07-21T10:25:34.228Z,1010.45
2016-07-21T10:26:34.262Z,1010.43
2016-07-21T10:27:34.297Z,1010.44
2016-07-21T10:28:34.330Z,1010.46
2016-07-21T10:29:34.364Z,1010.47
2016-07-21T10:30:34.396Z,1010.44
2016-07-21T10:31:34.432Z,1010.52
2016-07-21T10:32:34.466Z,1010.49
2016-07-21T10:33:34.500Z,1010.51
2016-07-21T10:34:34.534Z,1010.54
2016-07-21T10:35:34.566Z,1010.51
2016-07-21T10:36:34.601Z,1010.6
2016-07-21T10:37:34.636Z,1010.58
2016-07-21T10:38:34.670Z,1010.56
2016-07-21T10:39:34.700Z,1010.59
2016-07-21T10:40:34.736Z,1010.6
2016-07-21T10:41:34.772Z,1010.58
2016-07-21T10:42:34.804Z,1010.54
2016-07-21T10:44:34.872Z,1010.57
2016-07-21T10:45:34.906Z,1010.59
2016-07-21T10:46:34.938Z,1010.55
2016-07-21T10:47:34.971Z,1010.57
2016-07-21T10:48:35.005Z,1010.57
2016-07-21T10:49:35.042Z,1010.55
2016-07-21T10:50:35.074Z,1010.54
2016-07-21T10:51:35.108Z,1010.55
2016-07-21T10:52:35.142Z,1010.55
2016-07-21T10:53:35.175Z,1010.51
2016-07-21T10:54:35.207Z,1010.49
2016-07-21T10:55:35.241Z,1010.45
2016-07-21T10:56:35.277Z,1010.45
2016-07-21T10:57:35.309Z,1010.42
2016-07-21T10:58:35.343Z,1010.48
2016-07-21T11:00:35.411Z,1010.5
2016-07-21T11:01:35.442Z,1010.46
2016-07-21T11:02:35.477Z,1010.52
2016-07-21T11:03:35.509Z,1010.5
2016-07-21T11:04:35.541Z,1010.49
2016-07-21T11:05:35.576Z,1010.47
2016-07-21T11:06:35.612Z,1010.47
2016-07-21T11:07:35.643Z,1010.4
2016-07-21T11:08:35.676Z,1010.39
2016-07-21T11:09:35.711Z,1010.39
2016-07-21T11:10:35.744Z,1010.37
2016-07-21T11:11:35.781Z,1010.31
2016-07-21T11:12:35.809Z,1010.36
2016-07-21T11:13:35.844Z,1010.34
2016-07-21T11:14:35.878Z,1010.37
2016-07-21T11:16:35.942Z,1010.33
2016-07-21T11:17:35.978Z,1010.33
2016-07-21T11:18:36.013Z,1010.31
2016-07-21T11:19:36.042Z,1010.27
2016-07-21T11:20:36.076Z,1010.27
2016-07-21T11:21:36.110Z,1010.29
2016-07-21T11:22:36.144Z,1010.25
2016-07-21T11:23:36.176Z,1010.29
2016-07-21T11:24:36.249Z,1010.25
2016-07-21T11:25:36.241Z,1010.24
2016-07-21T11:26:36.274Z,1010.22
2016-07-21T11:27:36.308Z,1010.21
2016-07-21T11:28:36.340Z,1010.21
2016-07-21T11:29:36.375Z,1010.2
2016-07-21T11:30:36.406Z,1010.18
2016-07-21T11:32:36.473Z,1010.17
2016-07-21T11:33:36.507Z,1010.17
2016-07-21T11:34:36.538Z,1010.16
2016-07-21T11:35:36.570Z,1010.14
2016-07-21T11:36:36.606Z,1010.13
2016-07-21T11:37:36.638Z,1010.15
2016-07-21T11:38:36.670Z,1010.2
2016-07-21T11:39:36.704Z,1010.27
2016-07-21T11:40:36.736Z,1010.23
2016-07-21T11:41:36.768Z,1010.21
2016-07-21T11:42:36.800Z,1010.26
2016-07-21T11:43:36.836Z,1010.2
2016-07-21T11:44:36.867Z,1010.21
2016-07-21T11:45:36.900Z,1010.2
2016-07-21T11:47:36.966Z,1010.17
2016-07-21T11:48:36.998Z,1010.18
2016-07-21T11:49:37.040Z,1010.19
2016-07-21T11:50:37.068Z,1010.16
2016-07-21T11:51:37.099Z,1010.19
2016-07-21T11:52:37.131Z,1010.17
2016-07-21T11:53:37.164Z,1010.15
2016-07-21T11:54:37.195Z,1010.14
2016-07-21T11:55:37.229Z,1010.12
2016-07-21T11:56:37.262Z,1010.11
2016-07-21T11:57:37.295Z,1010.11
2016-07-21T11:58:37.327Z,1010.09
2016-07-21T11:59:37.359Z,1010.04
2016-07-21T12:00:37.392Z,1010.05
2016-07-21T12:01:37.425Z,1010.06
2016-07-21T12:02:37.455Z,1010.05
2016-07-21T12:03:37.490Z,1010.02
2016-07-21T12:04:37.520Z,1010.03
2016-07-21T12:05:37.555Z,1010.03
2016-07-21T12:06:37.585Z,1010.02
2016-07-21T12:07:37.618Z,1009.98
2016-07-21T12:08:37.652Z,1010
2016-07-21T12:09:37.685Z,1010.03
2016-07-21T12:10:37.714Z,1010.01
2016-07-21T12:11:37.747Z,1010
2016-07-21T12:12:37.782Z,1010.03
2016-07-21T12:13:37.812Z,1009.99
2016-07-21T12:14:37.846Z,1010
2016-07-21T12:15:37.877Z,1010.01
2016-07-21T12:16:37.910Z,1009.96
2016-07-21T12:17:37.941Z,1009.97
2016-07-21T12:19:38.008Z,1009.97
2016-07-21T12:20:38.039Z,1009.97
2016-07-21T12:21:38.072Z,1009.98
2016-07-21T12:22:38.105Z,1009.96
2016-07-21T12:23:38.135Z,1009.93
2016-07-21T12:24:38.170Z,1009.99
2016-07-21T12:25:38.200Z,1009.95
2016-07-21T12:26:38.233Z,1009.97
2016-07-21T12:27:38.267Z,1009.94
2016-07-21T12:28:38.296Z,1009.92
2016-07-21T12:29:38.332Z,1009.89
2016-07-21T12:30:38.364Z,1009.89
2016-07-21T12:31:38.396Z,1009.9
2016-07-21T12:32:38.426Z,1009.87
2016-07-21T12:33:38.458Z,1009.87
2016-07-21T12:35:38.526Z,1009.87
2016-07-21T12:36:38.556Z,1009.88
2016-07-21T12:37:38.590Z,1009.87
2016-07-21T12:38:38.622Z,1009.87
2016-07-21T12:39:38.653Z,1009.87
2016-07-21T12:40:38.685Z,1009.85
2016-07-21T12:41:38.722Z,1009.85
2016-07-21T12:42:38.752Z,1009.84
2016-07-21T12:43:38.784Z,1009.83
2016-07-21T12:44:38.816Z,1009.8
2016-07-21T12:45:38.849Z,1009.8
2016-07-21T12:46:38.883Z,1009.78
2016-07-21T12:47:38.913Z,1009.78
2016-07-21T12:48:38.948Z,1009.79